ADDS METAR Data INFO
IDs: Format: Raw Decoded Include TAF

Data at: 1825 UTC 24 Nov 2017

KACT 241751Z 17008KT 10SM CLR 22/04 A2994 RMK AO2 SLP134 T02170044 10217 20017 58013
KACT 241651Z 22010KT 10SM CLR 20/03 A2997 RMK AO2 SLP144 T02000028
KACT 241551Z 20005KT 10SM CLR 17/03 A2999 RMK AO2 SLP151 T01670028
KACT 241451Z 20006KT 10SM CLR 12/02 A2998 RMK AO2 SLP149 T01220017 50001
KACT 241351Z 00000KT 10SM CLR 07/02 A2999 RMK AO2 SLP154 T00670022
KACT 241251Z 00000KT 10SM CLR 03/00 A2998 RMK AO2 SLP152 T00280000
KACT 241151Z 00000KT 10SM CLR 04/01 A2998 RMK AO2 SLP149 T00390006 10089 20022 55010
KACT 241051Z AUTO 12004KT 10SM CLR 04/01 A2997 RMK AO2 SLP147 T00440006
KACT 240951Z AUTO 13003KT 10SM CLR 04/01 A2999 RMK AO2 SLP152 T00440006
KACT 240851Z AUTO 11003KT 10SM CLR 05/01 A3001 RMK AO2 SLP158 T00500006 56015
KACT 240751Z AUTO 20008KT 10SM CLR 09/02 A3002 RMK AO2 SLP162 T00890022
KACT 240651Z AUTO 16003KT 10SM CLR 07/01 A3004 RMK AO2 SLP169 T00720011
KACT 240551Z AUTO 21004KT 10SM CLR 08/01 A3005 RMK AO2 SLP174 T00780006 10133 20067 402001011 57008
KACT 240451Z 21006KT 10SM CLR 08/01 A3006 RMK AO2 SLP178 T00830011
KACT 240351Z 20007KT 10SM CLR 09/03 A3006 RMK AO2 SLP180 T00890028
KACT 240251Z AUTO 18005KT 10SM CLR 11/03 A3008 RMK AO2 SLP183 T01110028 53003
KACT 240151Z 16006KT 10SM CLR 12/01 A3007 RMK AO2 SLP181 T01220011
KACT 240051Z 14006KT 10SM CLR 12/M01 A3006 RMK AO2 SLP180 T01171006
KACT 232351Z 12007KT 10SM CLR 13/M01 A3007 RMK AO2 SLP181 T01331006 10200 20133 55003
KACT 232251Z 11007KT 10SM CLR 18/M02 A3006 RMK AO2 SLP179 T01781017
KACT 232151Z 12006KT 10SM CLR 20/M03 A3006 RMK AO2 SLP179 T02001028
KACT 232051Z 12005KT 10SM CLR 19/M03 A3007 RMK AO2 SLP182 T01941028 56030
KACT 231951Z 14006KT 10SM CLR 18/M03 A3009 RMK AO2 SLP189 T01831028
KACT 231851Z VRB03KT 10SM CLR 17/M03 A3013 RMK AO2 SLP200 T01671028
KACT 231751Z 14005KT 10SM CLR 15/M03 A3017 RMK AO2 SLP214 T01501033 10150 21011 58022
KACT 231651Z 14003KT 10SM CLR 13/M03 A3022 RMK AO2 SLP232 T01281033
KACT 231551Z 15003KT 10SM CLR 10/00 A3023 RMK AO2 SLP236 T01000000
KACT 231451Z 00000KT 10SM CLR 06/M01 A3023 RMK AO2 SLP237 T00611011 51008
KACT 231351Z 00000KT 10SM CLR 01/M01 A3022 RMK AO2 SLP235 T00111011
KACT 231251Z 00000KT 10SM CLR M01/M03 A3022 RMK AO2 SLP234 T10061033
KACT 231151Z 26005KT 9SM CLR M01/M03 A3021 RMK AO2 SLP229 T10111028 10022 21011 56010
KACT 231051Z AUTO 00000KT 10SM CLR M01/M03 A3021 RMK AO2 SLP232 T10061033
KACT 230951Z AUTO 25005KT 10SM CLR M01/M03 A3022 RMK AO2 SLP233 T10111033
KACT 230851Z AUTO 00000KT 10SM CLR 00/M03 A3024 RMK AO2 SLP238 T00001028 56011
KACT 230751Z AUTO 00000KT 8SM CLR 02/M03 A3025 RMK AO2 SLP241 T00171033
KACT 230731Z AUTO 29003KT 3SM CLR 01/M03 A3025 RMK AO2 T00061028
KACT 230719Z AUTO 27004KT 1 3/4SM CLR 00/M03 A3025 RMK AO2 T00001028
KACT 230651Z AUTO 00000KT 3SM CLR 01/M03 A3026 RMK AO2 SLP245 T00111028
KACT 230634Z AUTO 28003KT 2 1/2SM CLR 01/M03 A3026 RMK AO2 T00061028